Terminal Aerodrome Forecast
Issued by NWS Wilmington, OH

Current Version | Previous Version | Graphics & Text | Print | Product List | Glossary On
Versions: 1 2 3 4 5 6 7 8 9 10 11 12 13 14 15 16
214
FTUS41 KILN 061132
TAFCMH
TAF
KCMH 061132Z 0612/0712 10013KT P6SM VCSH SCT045 OVC090
     FM061300 10012KT 6SM -RA OVC035
     FM061400 10011KT 3SM -RA OVC025
     FM061800 11006KT 1SM -RA BR OVC005
     FM062200 02004KT P6SM VCSH OVC005
     FM070000 29012G20KT P6SM -DZ OVC007=

USA.gov is the U.S. government's official web portal to all federal, state and local government web resources and services.